Time;durP1;ratioP1;P1;durP2;ratioP2;P2;SDS_P1;SDS_P2;PMS_P1;PMS_P2;Temp;Humidity;BMP_temperature;BMP_pressure;BME280_temperature;BME280_humidity;BME280_pressure;Samples;Min_cycle;Max_cycle;Signal;HPM_P1;HPM_P2
2022/09/05 00:01:18;;;;;;;8.25;3.20;;;;;;;15.34;74.22;101770.84;5015978;28;20072;-66
2022/09/05 00:03:56;;;;;;;4.13;3.20;;;;;;;15.28;73.83;101773.06;5027012;28;20052;-66
2022/09/05 00:06:28;;;;;;;3.33;2.63;;;;;;;15.24;74.62;101773.41;5028119;28;20113;-65
2022/09/05 00:08:57;;;;;;;8.47;3.07;;;;;;;15.22;74.10;101767.19;5028491;28;20041;-66
2022/09/05 00:11:38;;;;;;;4.40;2.83;;;;;;;15.22;73.59;101769.94;5028394;28;20044;-66
2022/09/05 00:14:26;;;;;;;5.43;3.50;;;;;;;15.19;74.01;101761.94;5027829;28;20041;-66
2022/09/05 00:17:09;;;;;;;5.55;2.88;;;;;;;15.09;75.26;101771.88;5026758;28;20111;-66
2022/09/05 00:20:04;;;;;;;3.90;3.22;;;;;;;15.09;73.84;101767.25;5026823;28;20041;-66
2022/09/05 00:22:35;;;;;;;5.28;3.35;;;;;;;15.07;73.67;101768.38;5027512;28;20037;-66
2022/09/05 00:25:37;;;;;;;3.70;3.10;;;;;;;15.05;73.67;101772.09;5027235;28;20040;-65
2022/09/05 00:28:18;;;;;;;6.72;3.10;;;;;;;15.00;74.15;101760.59;5026226;28;20033;-65
2022/09/05 00:31:07;;;;;;;3.88;3.13;;;;;;;15.00;73.50;101765.22;5026675;28;20371;-66
2022/09/05 00:34:00;;;;;;;4.95;3.28;;;;;;;14.96;74.10;101769.19;5021039;28;20434;-65
2022/09/05 00:36:39;;;;;;;5.38;3.50;;;;;;;14.89;75.63;101763.31;5007872;28;20112;-66
2022/09/05 00:39:17;;;;;;;5.35;3.38;;;;;;;14.87;75.09;101768.00;5020959;28;20043;-66
2022/09/05 00:41:46;;;;;;;4.32;2.80;;;;;;;14.85;74.86;101764.53;5042292;28;20048;-66
2022/09/05 00:44:13;;;;;;;5.55;3.13;;;;;;;14.81;74.44;101765.75;5039211;28;20083;-65
2022/09/05 00:46:43;;;;;;;3.92;2.85;;;;;;;14.82;74.17;101766.63;5026186;28;20045;-67
2022/09/05 00:49:28;;;;;;;4.63;3.50;;;;;;;14.74;76.62;101761.75;5018814;28;20045;-66
2022/09/05 00:52:02;;;;;;;4.72;3.28;;;;;;;14.65;76.54;101756.94;5012232;28;20049;-66
2022/09/05 00:54:37;;;;;;;5.20;3.50;;;;;;;14.65;75.81;101762.44;5026126;28;20041;-65
2022/09/05 00:57:37;;;;;;;8.45;3.55;;;;;;;14.65;76.01;101756.94;5025700;28;20080;-66
2022/09/05 01:00:32;;;;;;;6.38;3.42;;;;;;;14.63;75.59;101750.69;5019170;28;20048;-65
2022/09/05 01:03:16;;;;;;;4.70;3.47;;;;;;;14.56;76.72;101753.03;5008196;28;20076;-67
2022/09/05 01:05:56;;;;;;;5.63;3.67;;;;;;;14.54;76.05;101755.88;5027143;28;20041;-65
2022/09/05 01:08:59;;;;;;;6.75;4.10;;;;;;;14.54;75.35;101757.72;5023472;28;20088;-65
2022/09/05 01:11:24;;;;;;;5.47;3.40;;;;;;;14.54;75.50;101761.34;5007901;28;20045;-65
2022/09/05 01:14:27;;;;;;;5.38;3.90;;;;;;;14.56;74.90;101755.78;5007228;28;20433;-66
2022/09/05 01:17:29;;;;;;;7.03;3.40;;;;;;;14.57;74.74;101756.66;5005967;28;20033;-66
2022/09/05 01:20:27;;;;;;;4.50;3.25;;;;;;;14.52;74.92;101755.13;5024609;28;20033;-70
2022/09/05 01:23:17;;;;;;;5.90;3.50;;;;;;;14.48;75.23;101755.47;5027328;28;20481;-65
2022/09/05 01:26:10;;;;;;;7.10;3.60;;;;;;;14.44;74.74;101757.50;5026853;28;20500;-65
2022/09/05 01:28:50;;;;;;;;;;;;;;;14.45;73.67;101753.78;5027147;28;20091;-66
2022/09/05 01:31:37;;;;;;;7.97;4.10;;;;;;;14.37;75.90;101756.22;5025590;28;19921;-66
2022/09/05 01:34:22;;;;;;;4.00;3.50;;;;;;;14.36;75.89;101761.81;5025893;28;20029;-65
2022/09/05 01:37:02;;;;;;;6.30;3.75;;;;;;;14.30;76.53;101760.41;5026850;28;20045;-66
2022/09/05 01:39:48;;;;;;;7.68;4.90;;;;;;;14.27;76.47;101757.91;5026298;28;20118;-66
2022/09/05 01:42:41;;;;;;;7.38;4.20;;;;;;;14.27;75.50;101752.44;5026757;28;20516;-65
2022/09/05 01:45:20;;;;;;;6.43;4.00;;;;;;;14.24;76.11;101752.66;5026594;28;20095;-67
2022/09/05 01:48:09;;;;;;;6.18;4.45;;;;;;;14.20;75.93;101746.50;5006627;28;20069;-66
2022/09/05 01:50:55;;;;;;;8.23;4.00;;;;;;;14.20;75.58;101749.25;5006873;28;20038;-66
2022/09/05 01:53:52;;;;;;;5.50;3.90;;;;;;;14.16;75.33;101746.84;5023264;28;20044;-66
2022/09/05 01:56:52;;;;;;;6.93;3.92;;;;;;;14.15;75.91;101745.09;5025236;28;20037;-65
2022/09/05 01:59:27;;;;;;;6.60;4.00;;;;;;;14.11;76.75;101751.78;5021463;28;20069;-66
2022/09/05 02:02:20;;;;;;;5.88;4.55;;;;;;;14.10;76.50;101753.66;5020906;28;20041;-66
2022/09/05 02:05:00;;;;;;;;;;;;;;;14.15;74.06;101754.19;5026318;28;20060;-66
2022/09/05 02:07:52;;;;;;;6.63;4.53;;;;;;;14.06;76.17;101756.72;5027913;28;19999;-66
2022/09/05 02:10:42;;;;;;;8.48;4.50;;;;;;;14.00;77.19;101750.72;5030114;28;20038;-66
2022/09/05 02:13:20;;;;;;;9.70;4.78;;;;;;;13.95;77.62;101757.50;5029562;28;20029;-67
2022/09/05 02:15:57;;;;;;;6.43;4.25;;;;;;;13.96;76.44;101751.03;5029024;28;20112;-66
2022/09/05 02:18:30;;;;;;;8.00;4.30;;;;;;;13.94;77.22;101755.72;5025967;28;20038;-65
2022/09/05 02:20:59;;;;;;;10.77;4.35;;;;;;;13.92;76.67;101764.06;5010226;28;20045;-68
2022/09/05 02:23:36;;;;;;;5.60;4.70;;;;;;;13.89;77.64;101758.78;5027016;28;20026;-66
2022/09/05 02:26:15;;;;;;;6.30;4.70;;;;;;;13.88;77.01;101756.19;5029277;28;20044;-66
2022/09/05 02:28:52;;;;;;;9.98;5.30;;;;;;;13.85;77.95;101751.81;5029909;28;20030;-65
2022/09/05 02:31:38;;;;;;;7.95;4.85;;;;;;;13.85;77.31;101753.66;5028687;28;20045;-67
2022/09/05 02:34:11;;;;;;;7.80;5.40;;;;;;;13.82;77.52;101764.84;5028545;28;20057;-66
2022/09/05 02:36:44;;;;;;;7.28;5.05;;;;;;;13.81;77.43;101769.44;5029538;28;20045;-66
2022/09/05 02:39:33;;;;;;;7.75;5.30;;;;;;;13.83;77.37;101766.59;5029629;28;20120;-66
2022/09/05 02:42:08;;;;;;;9.43;5.65;;;;;;;13.77;78.13;101763.31;5029629;28;20038;-65
2022/09/05 02:44:51;;;;;;;8.32;5.78;;;;;;;13.74;78.38;101758.03;5016893;28;20092;-66
2022/09/05 02:47:35;;;;;;;10.15;6.45;;;;;;;13.73;78.00;101761.78;5026351;28;20081;-66
2022/09/05 02:50:23;;;;;;;8.57;6.03;;;;;;;13.72;79.13;101770.09;5012205;28;20072;-67
2022/09/05 02:52:49;;;;;;;10.70;6.25;;;;;;;13.69;78.93;101765.69;5020991;28;20408;-66
2022/09/05 02:55:30;;;;;;;8.63;6.00;;;;;;;13.70;78.16;101766.56;5028752;28;20030;-65
2022/09/05 02:58:17;;;;;;;7.93;5.85;;;;;;;13.64;78.92;101767.00;5029536;28;20408;-69
2022/09/05 03:01:10;;;;;;;8.18;6.00;;;;;;;13.62;78.08;101763.53;5025309;28;20398;-65
2022/09/05 03:03:49;;;;;;;8.27;5.53;;;;;;;13.60;77.66;101760.00;5009352;28;20049;-66
2022/09/05 03:06:30;;;;;;;7.97;5.63;;;;;;;13.57;78.71;101758.38;5009443;28;20076;-66
2022/09/05 03:09:13;;;;;;;8.23;5.35;;;;;;;13.53;78.67;101757.72;5010156;28;20069;-69
2022/09/05 03:12:09;;;;;;;9.57;5.70;;;;;;;13.53;77.32;101762.31;5009208;28;20459;-66
2022/09/05 03:15:06;;;;;;;7.03;4.97;;;;;;;13.52;77.00;101760.53;5013719;28;20039;-66
2022/09/05 03:18:06;;;;;;;7.95;6.05;;;;;;;13.49;77.83;101760.78;5026873;28;20400;-66
2022/09/05 03:20:34;;;;;;;9.50;5.60;;;;;;;13.47;77.31;101765.44;5009142;28;20069;-65
2022/09/05 03:23:23;;;;;;;9.20;5.65;;;;;;;13.47;76.85;101765.44;5016541;28;20072;-66
2022/09/05 03:26:30;;;;;;;8.25;6.00;;;;;;;13.46;77.89;101763.72;5008972;28;20047;-66
2022/09/05 03:29:25;;;;;;;13.05;7.47;;;;;;;13.41;78.49;101761.28;5009109;28;20038;-69
2022/09/05 03:32:33;;;;;;;10.60;6.38;;;;;;;13.40;78.26;101766.88;5022256;28;20112;-68
2022/09/05 03:35:41;;;;;;;9.18;6.55;;;;;;;13.34;78.43;101761.84;5028197;28;20433;-66
2022/09/05 03:38:40;;;;;;;9.68;6.00;;;;;;;13.30;79.56;101757.56;5028079;28;20098;-67
2022/09/05 03:41:28;;;;;;;10.98;6.22;;;;;;;13.26;78.50;101762.38;5008889;28;20529;-66
2022/09/05 03:43:56;;;;;;;9.77;5.88;;;;;;;13.24;78.61;101762.50;5007883;28;20091;-66
2022/09/05 03:46:59;;;;;;;10.30;6.60;;;;;;;13.24;77.85;101765.22;5019008;28;20046;-66
2022/09/05 03:50:16;;;;;;;8.02;6.35;;;;;;;13.21;77.72;101762.66;5023044;28;20088;-67
2022/09/05 03:52:55;;;;;;;11.02;5.47;;;;;;;13.18;78.08;101767.44;5017296;28;20053;-65
2022/09/05 03:55:32;;;;;;;13.15;7.63;;;;;;;13.15;79.69;101760.34;5019136;28;20127;-66
2022/09/05 03:58:06;;;;;;;10.60;6.38;;;;;;;13.13;79.00;101758.69;5009443;28;20038;-66
2022/09/05 04:00:33;;;;;;;9.75;6.75;;;;;;;13.10;79.38;101756.16;5027253;28;20033;-66
2022/09/05 04:02:59;;;;;;;8.40;6.30;;;;;;;13.09;78.60;101755.28;5027092;28;20049;-66
2022/09/05 04:05:28;;;;;;;10.95;6.55;;;;;;;13.08;78.47;101758.13;5022722;28;20061;-66
2022/09/05 04:08:06;;;;;;;12.00;7.05;;;;;;;13.09;78.91;101765.34;5028436;28;20067;-66
2022/09/05 04:10:40;;;;;;;10.70;7.95;;;;;;;12.94;82.07;101761.81;5027886;28;20034;-66
2022/09/05 04:13:24;;;;;;;12.80;7.47;;;;;;;12.94;81.82;101764.53;5027494;28;20497;-66
2022/09/05 04:16:02;;;;;;;11.40;7.15;;;;;;;12.96;79.33;101768.94;5026767;28;20101;-68
2022/09/05 04:18:36;;;;;;;12.88;7.55;;;;;;;12.94;79.94;101759.94;5025791;28;20107;-66
2022/09/05 04:21:09;;;;;;;12.80;7.22;;;;;;;12.91;80.75;101762.88;5027813;28;20047;-66
2022/09/05 04:24:03;;;;;;;10.38;7.78;;;;;;;12.87;81.95;101760.44;5027599;28;20039;-66
2022/09/05 04:26:47;;;;;;;11.77;7.38;;;;;;;12.85;80.59;101760.56;5027020;28;20038;-65
2022/09/05 04:29:41;;;;;;;14.05;8.23;;;;;;;12.84;81.09;101761.56;5027128;28;20030;-66
2022/09/05 04:32:50;;;;;;;13.75;7.57;;;;;;;12.82;80.03;101762.63;5026419;28;20041;-66
2022/09/05 04:35:37;;;;;;;11.02;7.70;;;;;;;12.81;80.21;101763.59;5027037;28;20087;-65
2022/09/05 04:38:12;;;;;;;12.13;8.65;;;;;;;12.80;80.78;101767.31;5027362;28;20033;-65
2022/09/05 04:40:43;;;;;;;12.65;8.07;;;;;;;12.74;81.99;101764.03;5026928;28;20385;-66
2022/09/05 04:43:17;;;;;;;15.75;9.38;;;;;;;12.73;80.93;101764.13;5027208;28;20106;-67
2022/09/05 04:45:52;;;;;;;13.35;7.43;;;;;;;12.75;79.98;101773.97;5026283;28;20039;-66
2022/09/05 04:48:23;;;;;;;13.43;7.63;;;;;;;12.74;79.60;101769.50;5023106;28;20405;-67
2022/09/05 04:51:14;;;;;;;9.27;7.65;;;;;;;12.75;80.21;101770.38;5007438;28;20520;-67
2022/09/05 04:53:59;;;;;;;12.10;7.97;;;;;;;12.75;79.98;101767.63;5025513;28;20128;-66
2022/09/05 04:56:33;;;;;;;12.88;8.75;;;;;;;12.71;81.57;101766.06;5027936;28;20136;-68
2022/09/05 04:59:15;;;;;;;14.32;9.63;;;;;;;12.73;81.68;101765.00;5010450;28;20042;-67
2022/09/05 05:02:10;;;;;;;14.70;9.50;;;;;;;12.78;80.90;101772.91;5018290;28;20140;-66
2022/09/05 05:04:35;;;;;;;12.02;7.82;;;;;;;12.77;80.35;101773.84;5026005;28;20575;-66
2022/09/05 05:07:16;;;;;;;13.60;8.15;;;;;;;12.78;79.58;101794.75;5027151;28;20033;-65
2022/09/05 05:09:53;;;;;;;16.45;9.38;;;;;;;12.75;81.37;101786.75;5027148;28;20041;-66
2022/09/05 05:12:42;;;;;;;19.70;9.32;;;;;;;12.68;82.68;101791.75;5010103;28;20050;-66
2022/09/05 05:15:12;;;;;;;16.10;9.63;;;;;;;12.64;82.37;101792.06;5007895;28;20520;-68
2022/09/05 05:17:50;;;;;;;12.93;8.18;;;;;;;12.65;81.56;101783.75;5008095;28;20065;-66
2022/09/05 05:20:27;;;;;;;15.88;9.25;;;;;;;12.69;83.30;101787.16;5025614;28;20480;-66
2022/09/05 05:23:17;;;;;;;13.30;9.20;;;;;;;12.73;81.85;101796.91;5021691;28;20549;-67
2022/09/05 05:25:50;;;;;;;16.42;9.77;;;;;;;12.73;83.52;101792.31;5007246;28;20397;-66
2022/09/05 05:28:21;;;;;;;;;;;;;;;12.80;80.66;101792.78;5008066;28;20034;-66
2022/09/05 05:30:47;;;;;;;11.93;9.05;;;;;;;12.76;82.37;101793.94;5008498;28;19928;-66
2022/09/05 05:33:27;;;;;;;13.68;9.23;;;;;;;12.80;81.58;101800.09;5026014;28;20041;-66
2022/09/05 05:35:55;;;;;;;18.13;8.93;;;;;;;12.83;81.51;101794.44;5027437;28;20481;-66
2022/09/05 05:38:26;;;;;;;14.55;9.90;;;;;;;12.87;82.03;101795.94;5025992;28;20029;-66
2022/09/05 05:41:17;;;;;;;16.98;9.43;;;;;;;12.88;81.36;101797.72;5027552;28;20125;-67
2022/09/05 05:43:45;;;;;;;17.40;9.43;;;;;;;12.88;81.99;101793.16;5025188;28;20038;-66
2022/09/05 05:46:14;;;;;;;14.10;9.23;;;;;;;12.92;81.89;101796.56;5029528;28;20049;-67
2022/09/05 05:48:41;;;;;;;19.63;9.32;;;;;;;12.96;81.51;101787.16;5029636;28;20511;-66
2022/09/05 05:51:32;;;;;;;14.73;9.07;;;;;;;13.01;80.65;101790.47;5030568;28;20477;-66
2022/09/05 05:54:09;;;;;;;13.05;7.90;;;;;;;13.09;80.36;101796.28;5012373;28;20041;-66
2022/09/05 05:56:52;;;;;;;14.60;8.63;;;;;;;13.13;80.53;101799.69;5030505;28;20103;-66
2022/09/05 05:59:35;;;;;;;20.73;10.70;;;;;;;13.18;81.01;101805.69;5029995;28;20095;-65
2022/09/05 06:02:38;;;;;;;16.98;10.02;;;;;;;13.23;81.55;101804.44;5029371;28;20037;-68
2022/09/05 06:05:32;;;;;;;17.10;12.48;;;;;;;13.26;83.89;101806.97;5013908;28;20068;-67
2022/09/05 06:08:32;;;;;;;17.13;11.05;;;;;;;13.28;84.22;101810.47;5010394;28;20120;-66
2022/09/05 06:11:16;;;;;;;15.95;10.70;;;;;;;13.34;85.53;101814.66;5022648;28;20117;-66
2022/09/05 06:13:53;;;;;;;16.30;11.05;;;;;;;13.43;85.39;101813.13;5030007;28;20040;-67
2022/09/05 06:16:40;;;;;;;17.52;12.20;;;;;;;13.54;84.51;101824.19;5022122;28;20041;-67
2022/09/05 06:19:42;;;;;;;17.63;11.80;;;;;;;13.65;84.60;101821.59;5018397;28;20040;-66
2022/09/05 06:22:32;;;;;;;15.00;11.32;;;;;;;13.75;84.19;101821.81;5029811;28;20497;-67
2022/09/05 06:25:28;;;;;;;22.60;12.30;;;;;;;13.91;84.86;101822.50;5029993;28;20048;-66
2022/09/05 06:28:12;;;;;;;19.92;12.55;;;;;;;14.05;85.04;101818.78;5030071;28;20041;-66
2022/09/05 06:30:46;;;;;;;23.02;13.85;;;;;;;14.14;86.22;101818.13;5028704;28;20044;-66
2022/09/05 06:33:20;;;;;;;21.08;14.20;;;;;;;14.23;87.13;101817.47;5028919;28;20060;-66
2022/09/05 06:36:13;;;;;;;22.70;14.00;;;;;;;14.36;86.27;101822.03;5029580;28;20047;-67
2022/09/05 06:38:50;;;;;;;22.65;14.32;;;;;;;14.49;86.21;101821.06;5028253;28;20041;-67
2022/09/05 06:41:39;;;;;;;25.70;15.57;;;;;;;14.61;87.07;101816.56;5029181;28;20045;-66
2022/09/05 06:44:51;;;;;;;21.52;14.38;;;;;;;14.78;86.35;101823.50;5029484;28;20408;-67
2022/09/05 06:47:18;;;;;;;21.55;14.70;;;;;;;14.98;86.08;101820.16;5008697;28;20057;-67
2022/09/05 06:50:04;;;;;;;23.52;16.48;;;;;;;15.14;86.42;101821.72;5028515;28;20041;-65
2022/09/05 06:52:57;;;;;;;23.00;16.35;;;;;;;15.29;86.01;101812.31;5027119;28;20500;-66
2022/09/05 06:55:50;;;;;;;23.05;15.45;;;;;;;15.49;85.15;101814.41;5028254;28;20038;-66
2022/09/05 06:58:33;;;;;;;24.88;15.55;;;;;;;15.64;84.96;101819.72;5029487;28;20579;-66
2022/09/05 07:01:01;;;;;;;27.50;17.63;;;;;;;15.81;85.99;101816.53;5024181;28;20037;-66
2022/09/05 07:03:54;;;;;;;22.38;16.73;;;;;;;15.93;85.07;101821.03;5028209;28;20057;-66
2022/09/05 07:06:33;;;;;;;25.30;16.35;;;;;;;16.11;84.17;101826.06;5029140;28;20060;-66
2022/09/05 07:09:27;;;;;;;23.77;16.05;;;;;;;16.26;83.44;101822.94;5028422;28;20374;-67
2022/09/05 07:12:10;;;;;;;23.10;16.65;;;;;;;16.36;83.15;101831.31;5029595;28;20063;-67
2022/09/05 07:14:48;;;;;;;20.92;14.63;;;;;;;16.53;81.48;101835.44;5028507;28;20033;-67
2022/09/05 07:17:33;;;;;;;23.83;14.27;;;;;;;16.69;80.38;101830.41;5014064;28;20053;-67
2022/09/05 07:20:04;;;;;;;19.63;13.20;;;;;;;16.81;79.82;101831.31;5024673;28;20041;-66
2022/09/05 07:22:48;;;;;;;20.15;12.52;;;;;;;16.92;79.26;101831.28;5028710;28;20095;-67
2022/09/05 07:25:18;;;;;;;21.02;13.93;;;;;;;17.04;79.33;101834.91;5028884;28;20049;-67
2022/09/05 07:28:09;;;;;;;16.83;13.00;;;;;;;17.14;78.59;101835.00;5028087;28;20504;-67
2022/09/05 07:30:39;;;;;;;16.00;12.27;;;;;;;17.22;78.52;101826.97;5027522;28;20128;-66
2022/09/05 07:33:05;;;;;;;15.10;11.13;;;;;;;17.37;77.61;101830.31;5008498;28;20120;-67
2022/09/05 07:35:34;;;;;;;12.05;9.73;;;;;;;17.48;76.41;101833.84;5028079;28;20095;-66
2022/09/05 07:38:12;;;;;;;12.73;8.45;;;;;;;17.59;76.50;101835.72;5028426;28;20501;-68
2022/09/05 07:40:44;;;;;;;12.43;8.10;;;;;;;17.70;75.71;101846.66;5028032;28;20029;-66
2022/09/05 07:43:17;;;;;;;16.58;9.00;;;;;;;17.77;76.54;101849.78;5028409;28;20045;-66
2022/09/05 07:45:49;;;;;;;9.68;6.18;;;;;;;17.90;74.57;101850.44;5026903;28;20068;-67
2022/09/05 07:48:26;;;;;;;8.77;7.28;;;;;;;18.02;75.69;101849.38;5027466;28;20455;-66
2022/09/05 07:50:57;;;;;;;9.07;6.38;;;;;;;18.20;73.47;101840.50;5028828;28;20420;-66
2022/09/05 07:53:24;;;;;;;8.35;6.03;;;;;;;18.35;73.65;101852.91;5028222;28;20045;-66
2022/09/05 07:55:55;;;;;;;8.00;5.05;;;;;;;18.45;72.34;101858.47;5028197;28;20102;-66
2022/09/05 07:58:23;;;;;;;6.72;5.05;;;;;;;18.62;70.29;101852.31;5027753;28;20102;-66
2022/09/05 08:00:55;;;;;;;8.00;4.85;;;;;;;18.76;71.17;101849.19;5026953;28;20080;-66
2022/09/05 08:03:27;;;;;;;6.45;4.70;;;;;;;18.89;70.46;101851.72;5025875;28;20136;-67
2022/09/05 08:05:56;;;;;;;7.95;4.30;;;;;;;19.07;68.66;101846.38;5009204;28;20033;-66
2022/09/05 08:08:28;;;;;;;7.75;3.92;;;;;;;19.24;68.21;101850.34;5008795;28;20033;-66
2022/09/05 08:10:58;;;;;;;8.50;4.20;;;;;;;19.36;68.86;101841.78;5008737;28;20038;-66
2022/09/05 08:13:55;;;;;;;9.55;4.18;;;;;;;19.52;69.98;101843.09;5009098;28;20037;-66
2022/09/05 08:16:23;;;;;;;6.30;3.60;;;;;;;19.76;65.61;101840.78;5001550;28;20053;-66
2022/09/05 08:19:22;;;;;;;9.70;3.50;;;;;;;20.01;65.06;101844.84;5013107;28;20044;-66
2022/09/05 08:21:51;;;;;;;10.32;3.20;;;;;;;20.24;63.31;101831.56;5027666;28;20043;-66
2022/09/05 08:24:35;;;;;;;10.63;3.53;;;;;;;20.41;65.00;101832.63;5010687;28;20481;-66
2022/09/05 08:27:15;;;;;;;15.38;3.58;;;;;;;20.66;64.31;101838.53;5007914;28;20044;-66
2022/09/05 08:29:52;;;;;;;13.35;3.45;;;;;;;20.90;61.92;101841.63;5007860;28;20477;-66
2022/09/05 08:32:29;;;;;;;11.50;3.20;;;;;;;21.12;62.20;101841.22;5024261;28;20065;-65
2022/09/05 08:35:24;;;;;;;7.55;2.78;;;;;;;21.38;60.63;101843.22;5027715;28;20401;-66
2022/09/05 08:37:52;;;;;;;8.07;2.95;;;;;;;21.55;60.40;101850.69;5023289;28;20045;-66
2022/09/05 08:40:37;;;;;;;11.90;2.92;;;;;;;21.69;60.80;101852.03;5027476;28;20032;-67
2022/09/05 08:43:41;;;;;;;9.10;2.97;;;;;;;21.87;61.44;101852.88;5027105;28;20120;-66
2022/09/05 08:46:26;;;;;;;7.60;3.20;;;;;;;21.99;60.42;101847.06;5013173;28;20037;-66
2022/09/05 08:49:16;;;;;;;9.23;2.65;;;;;;;22.11;56.36;101848.56;5026849;28;20550;-67
2022/09/05 08:51:59;;;;;;;24.58;3.72;;;;;;;22.22;58.09;101847.44;5027164;28;20421;-67
2022/09/05 08:54:50;;;;;;;9.15;2.90;;;;;;;22.44;55.46;101844.13;5027740;28;20033;-67
2022/09/05 08:57:23;;;;;;;11.95;3.35;;;;;;;22.80;58.87;101842.06;5026013;28;20041;-66
2022/09/05 09:00:07;;;;;;;6.50;2.53;;;;;;;23.25;55.70;101838.06;5026685;28;20037;-66
2022/09/05 09:03:00;;;;;;;7.50;2.78;;;;;;;23.73;55.18;101828.06;5025690;28;20034;-66
2022/09/05 09:05:53;;;;;;;5.18;2.30;;;;;;;24.29;55.10;101822.63;5026622;28;20045;-70
2022/09/05 09:08:23;;;;;;;;;;;;;;;24.51;56.54;101826.63;5035774;28;20439;-66
2022/09/05 09:10:59;;;;;;;5.15;2.38;;;;;;;24.93;48.90;101818.78;5044109;28;19920;-66
2022/09/05 09:13:53;;;;;;;3.90;2.28;;;;;;;25.40;52.90;101823.41;5043416;28;20040;-66
2022/09/05 09:16:37;;;;;;;5.35;2.80;;;;;;;25.81;49.48;101819.47;5039156;28;20033;-66
2022/09/05 09:19:22;;;;;;;8.45;2.60;;;;;;;26.06;48.26;101820.09;5026169;28;20393;-66
2022/09/05 09:22:08;;;;;;;7.70;4.05;;;;;;;26.10;46.92;101816.75;5017329;28;20048;-66
2022/09/05 09:24:36;;;;;;;10.05;2.80;;;;;;;26.28;44.08;101816.38;5033109;28;20037;-66
2022/09/05 09:27:08;;;;;;;29.40;3.85;;;;;;;26.53;45.95;101814.22;5033420;28;20511;-66
2022/09/05 09:29:38;;;;;;;14.60;3.10;;;;;;;27.01;45.76;101809.06;5033064;28;20045;-65
2022/09/05 09:32:13;;;;;;;2.95;1.92;;;;;;;27.27;42.13;101805.75;5032278;28;20553;-66
2022/09/05 09:34:38;;;;;;;5.82;2.50;;;;;;;27.59;42.52;101798.75;5021102;28;20038;-66
2022/09/05 09:37:03;;;;;;;5.57;2.10;;;;;;;27.88;40.99;101805.28;5013737;28;20497;-66
2022/09/05 09:39:40;;;;;;;3.43;2.03;;;;;;;28.13;40.83;101798.19;5013540;28;20061;-66
2022/09/05 09:42:28;;;;;;;6.78;2.00;;;;;;;28.16;40.00;101800.56;5013713;28;20284;-66
2022/09/05 09:45:11;;;;;;;4.82;2.25;;;;;;;28.46;40.72;101795.66;5014176;28;20038;-65
2022/09/05 09:47:59;;;;;;;4.43;2.35;;;;;;;28.66;37.14;101794.91;5030511;28;20041;-67
2022/09/05 09:50:54;;;;;;;191.65;14.82;;;;;;;28.90;38.25;101801.91;5033568;28;20580;-65
2022/09/05 09:53:39;;;;;;;13.02;2.40;;;;;;;29.20;37.50;101794.09;5032933;28;20052;-67
2022/09/05 09:56:16;;;;;;;4.32;2.25;;;;;;;29.37;35.15;101797.34;5033034;28;20041;-66
2022/09/05 09:59:04;;;;;;;3.42;1.70;;;;;;;29.68;36.76;101794.84;5033212;28;20120;-66
2022/09/05 10:01:53;;;;;;;3.78;1.75;;;;;;;29.99;35.17;101787.72;5032269;28;20124;-66
2022/09/05 10:04:34;;;;;;;5.20;1.77;;;;;;;30.24;34.83;101790.75;5027641;28;20046;-66
2022/09/05 10:07:42;;;;;;;2.17;1.70;;;;;;;30.71;36.09;101792.38;5015628;28;20081;-65
2022/09/05 10:10:14;;;;;;;3.92;2.10;;;;;;;30.72;30.70;101782.00;5032935;28;20045;-67
2022/09/05 10:12:42;;;;;;;6.35;1.80;;;;;;;30.86;33.37;101785.63;5033072;28;20448;-66
2022/09/05 10:15:31;;;;;;;7.05;1.90;;;;;;;31.18;32.73;101770.53;5033167;28;20102;-66
2022/09/05 10:18:12;;;;;;;5.80;2.10;;;;;;;31.46;34.19;101774.94;5032474;28;20053;-66
2022/09/05 10:21:10;;;;;;;2.70;1.83;;;;;;;31.27;30.67;101784.34;5013393;28;20038;-66
2022/09/05 10:23:52;;;;;;;4.40;2.10;;;;;;;31.39;31.01;101775.00;5031287;28;20037;-67
2022/09/05 10:26:42;;;;;;;2.92;1.52;;;;;;;31.64;33.58;101772.19;5018479;28;20033;-66
2022/09/05 10:29:13;;;;;;;5.15;1.65;;;;;;;31.96;28.86;101767.41;5007764;28;20140;-66
2022/09/05 10:31:57;;;;;;;2.85;1.90;;;;;;;31.84;28.65;101762.75;5011065;28;20096;-66
2022/09/05 10:34:29;;;;;;;3.47;1.48;;;;;;;31.92;28.89;101768.09;5019628;28;20658;-65
2022/09/05 10:37:07;;;;;;;4.72;1.30;;;;;;;31.77;30.80;101762.78;5030274;28;20057;-66
2022/09/05 10:39:37;;;;;;;4.05;1.60;;;;;;;32.01;28.86;101755.47;5013113;28;20088;-66
2022/09/05 10:42:14;;;;;;;4.20;1.50;;;;;;;32.40;29.25;101759.84;5009988;28;20030;-65
2022/09/05 10:44:54;;;;;;;2.95;1.88;;;;;;;32.78;29.52;101753.09;5024240;28;20037;-66
2022/09/05 10:47:40;;;;;;;3.55;1.80;;;;;;;32.70;28.08;101761.88;5028023;28;20041;-66
2022/09/05 10:50:24;;;;;;;2.97;1.65;;;;;;;32.74;28.75;101761.19;5029086;28;20116;-66
2022/09/05 10:52:51;;;;;;;4.50;1.45;;;;;;;32.91;27.30;101754.91;5029443;28;20048;-66
2022/09/05 10:55:27;;;;;;;2.63;1.42;;;;;;;32.93;26.31;101755.56;5028855;28;20517;-66
2022/09/05 10:57:55;;;;;;;3.05;1.90;;;;;;;32.59;24.63;101752.25;5029854;28;20393;-66
2022/09/05 11:00:42;;;;;;;3.45;1.48;;;;;;;32.56;27.49;101744.28;5030554;28;20037;-65
2022/09/05 11:03:12;;;;;;;3.58;1.50;;;;;;;32.26;28.90;101745.00;5039797;28;20053;-66
2022/09/05 11:05:53;;;;;;;3.13;1.38;;;;;;;32.56;28.15;101738.66;5010075;28;20046;-66
2022/09/05 11:08:44;;;;;;;4.85;1.52;;;;;;;32.79;28.44;101734.25;5010907;28;20045;-66
2022/09/05 11:11:18;;;;;;;5.90;1.60;;;;;;;33.04;28.31;101731.31;5029240;28;20077;-66
2022/09/05 11:13:49;;;;;;;3.75;1.75;;;;;;;33.21;27.31;101724.75;5029187;28;20114;-66
2022/09/05 11:16:36;;;;;;;4.97;1.65;;;;;;;33.38;27.87;101732.53;5027688;28;20037;-66
2022/09/05 11:19:04;;;;;;;3.13;1.45;;;;;;;33.39;24.62;101728.59;5028017;28;20198;-67
2022/09/05 11:21:48;;;;;;;3.03;1.73;;;;;;;33.35;25.12;101727.38;5028911;28;20116;-66
2022/09/05 11:24:32;;;;;;;3.53;1.40;;;;;;;33.32;25.34;101728.72;5028924;28;20042;-65
2022/09/05 11:27:04;;;;;;;6.28;1.52;;;;;;;33.41;26.79;101724.44;5018227;28;20049;-66
2022/09/05 11:29:41;;;;;;;;;;;;;;;33.68;27.74;101724.03;5009382;28;20041;-65
2022/09/05 11:32:18;;;;;;;2.78;1.50;;;;;;;33.37;25.36;101723.19;5010197;28;19944;-66
2022/09/05 11:35:01;;;;;;;2.97;1.58;;;;;;;33.33;27.07;101733.25;5020430;28;20041;-66
2022/09/05 11:38:01;;;;;;;3.17;1.40;;;;;;;33.44;27.95;101729.63;5028607;28;20124;-66
2022/09/05 11:40:30;;;;;;;3.00;1.58;;;;;;;33.77;26.79;101716.94;5027920;28;20052;-67
2022/09/05 11:43:14;;;;;;;2.97;1.67;;;;;;;33.95;27.82;101718.81;5028976;28;20397;-69
2022/09/05 11:46:27;;;;;;;3.65;1.58;;;;;;;33.84;26.41;101714.81;5027577;28;20520;-66
2022/09/05 11:49:33;;;;;;;6.47;1.63;;;;;;;33.87;26.39;101717.16;5013029;28;20516;-65
2022/09/05 11:52:20;;;;;;;5.70;1.85;;;;;;;33.82;26.21;101719.03;5028330;28;20041;-66
2022/09/05 11:55:12;;;;;;;3.42;1.50;;;;;;;34.11;26.60;101722.84;5027639;28;20037;-65
2022/09/05 11:57:50;;;;;;;4.25;1.98;;;;;;;34.20;25.75;101722.22;5027268;28;20049;-66
2022/09/05 12:00:20;;;;;;;3.28;1.80;;;;;;;34.22;26.36;101719.13;5027916;28;20029;-66
2022/09/05 12:03:16;;;;;;;9.75;1.67;;;;;;;34.45;25.64;101719.09;5030204;28;20037;-65
2022/09/05 12:05:53;;;;;;;4.15;1.75;;;;;;;34.06;24.09;101717.94;5008789;28;20092;-66
2022/09/05 12:08:28;;;;;;;4.97;1.45;;;;;;;34.04;24.53;101710.81;5008482;28;20042;-66
2022/09/05 12:11:12;;;;;;;2.45;1.65;;;;;;;34.24;26.47;101714.13;5012284;28;20049;-66
2022/09/05 12:13:46;;;;;;;3.05;1.40;;;;;;;34.30;24.86;101712.25;5027400;28;20145;-66
2022/09/05 12:16:41;;;;;;;3.08;1.35;;;;;;;34.11;26.21;101695.44;5027028;28;20046;-65
2022/09/05 12:19:12;;;;;;;7.93;1.77;;;;;;;34.18;26.28;101699.03;5024496;28;20034;-66
2022/09/05 12:22:01;;;;;;;2.78;1.83;;;;;;;34.35;25.82;101698.25;5026990;28;20037;-66
2022/09/05 12:24:53;;;;;;;1.77;1.60;;;;;;;34.57;25.74;101690.84;5026094;28;20523;-67
2022/09/05 12:27:23;;;;;;;2.42;1.60;;;;;;;34.48;26.84;101693.19;5016046;28;20393;-65
2022/09/05 12:29:54;;;;;;;3.72;1.40;;;;;;;34.65;24.04;101700.88;5026547;28;20116;-65